<?xml version='1.0' encoding='UTF-8'?><gpx version="1.1" creator="JPX - https://github.com/jenetics/jpx" xmlns="http://www.topografix.com/GPX/1/1"><trk><trkseg><trkpt lat="43.73979738953578" lon="11.300423519452346"><ele>97.0</ele><time>2026-05-03T08:57:41.9Z</time></trkpt><trkpt lat="43.739805229078215" lon="11.300512672139316"><ele>97.0</ele><time>2026-05-03T08:57:46.9Z</time></trkpt><trkpt lat="43.739781228287846" lon="11.300593927805561"><ele>97.0</ele><time>2026-05-03T08:57:51.9Z</time></trkpt><trkpt lat="43.73976030301337" lon="11.300679864671999"><ele>97.0</ele><time>2026-05-03T08:57:57.9Z</time></trkpt><trkpt lat="43.73973732252108" lon="11.300764692867777"><ele>97.0</ele><time>2026-05-03T08:58:03.899Z</time></trkpt><trkpt lat="43.739734561187475" lon="11.30085439984318"><ele>97.0</ele><time>2026-05-03T08:58:08.899Z</time></trkpt><trkpt lat="43.73972683736993" lon="11.300958342112834"><ele>97.0</ele><time>2026-05-03T08:58:14.899Z</time></trkpt><trkpt lat="43.73972596170531" lon="11.30105314274138"><ele>97.0</ele><time>2026-05-03T08:58:19.899Z</time></trkpt><trkpt lat="43.739725803981095" lon="11.301141824195073"><ele>97.0</ele><time>2026-05-03T08:58:25.899Z</time></trkpt><trkpt lat="43.7397158694811" lon="11.301238170974957"><ele>97.0</ele><time>2026-05-03T08:58:32.899Z</time></trkpt><trkpt lat="43.73971373371425" lon="11.301327849749867"><ele>97.0</ele><time>2026-05-03T08:58:37.899Z</time></trkpt><trkpt lat="43.739715888669686" lon="11.30142534076369"><ele>97.0</ele><time>2026-05-03T08:58:43.899Z</time></trkpt><trkpt lat="43.7397164573953" lon="11.301524725714078"><ele>97.0</ele><time>2026-05-03T08:58:50.899Z</time></trkpt><trkpt lat="43.73970357265917" lon="11.301627123732274"><ele>97.0</ele><time>2026-05-03T08:58:55.899Z</time></trkpt><trkpt lat="43.739690954657235" lon="11.301718069456482"><ele>97.0</ele><time>2026-05-03T08:58:59.898Z</time></trkpt><trkpt lat="43.73968761196634" lon="11.301808990116783"><ele>97.0</ele><time>2026-05-03T08:59:04.897Z</time></trkpt><trkpt lat="43.73967757674305" lon="11.301896414140947"><ele>97.0</ele><time>2026-05-03T08:59:10.897Z</time></trkpt><trkpt lat="43.739672307246465" lon="11.301997102179264"><ele>97.0</ele><time>2026-05-03T08:59:14.897Z</time></trkpt><trkpt lat="43.73967687013914" lon="11.302092897541614"><ele>97.0</ele><time>2026-05-03T08:59:20.897Z</time></trkpt><trkpt lat="43.73967204256647" lon="11.302184118883506"><ele>97.0</ele><time>2026-05-03T08:59:24.897Z</time></trkpt><trkpt lat="43.73966916164387" lon="11.3022784732956"><ele>97.0</ele><time>2026-05-03T08:59:29.897Z</time></trkpt><trkpt lat="43.73965839878929" lon="11.302368912471751"><ele>97.0</ele><time>2026-05-03T08:59:34.897Z</time></trkpt><trkpt lat="43.73963710330862" lon="11.302455800026754"><ele>97.0</ele><time>2026-05-03T08:59:39.897Z</time></trkpt><trkpt lat="43.73962070818706" lon="11.302548606636023"><ele>97.0</ele><time>2026-05-03T08:59:44.897Z</time></trkpt><trkpt lat="43.73961137524113" lon="11.302649243524906"><ele>97.0</ele><time>2026-05-03T08:59:51.896Z</time></trkpt><trkpt lat="43.73962422561454" lon="11.30275387012056"><ele>97.0</ele><time>2026-05-03T08:59:57.896Z</time></trkpt><trkpt lat="43.73963509680811" lon="11.30286086145305"><ele>97.0</ele><time>2026-05-03T09:00:03.896Z</time></trkpt><trkpt lat="43.739641792461704" lon="11.30296013616226"><ele>97.0</ele><time>2026-05-03T09:00:09.896Z</time></trkpt><trkpt lat="43.739643951307734" lon="11.303060661874866"><ele>97.42857142857143</ele><time>2026-05-03T09:00:14.896Z</time></trkpt><trkpt lat="43.73964691320798" lon="11.30315338481945"><ele>97.85714285714286</ele><time>2026-05-03T09:00:19.896Z</time></trkpt><trkpt lat="43.73965243405463" lon="11.303257703450786"><ele>98.28571428571429</ele><time>2026-05-03T09:00:25.896Z</time></trkpt><trkpt lat="43.739647903712644" lon="11.303352537424832"><ele>98.71428571428572</ele><time>2026-05-03T09:00:30.896Z</time></trkpt><trkpt lat="43.73964517280177" lon="11.303462490589926"><ele>99.14285714285714</ele><time>2026-05-03T09:00:36.896Z</time></trkpt><trkpt lat="43.73965797381513" lon="11.303560378599833"><ele>99.57142857142858</ele><time>2026-05-03T09:00:41.896Z</time></trkpt><trkpt lat="43.73966531938604" lon="11.303656261694277"><ele>100.0</ele><time>2026-05-03T09:00:46.896Z</time></trkpt><trkpt lat="43.739655267077076" lon="11.303751805464954"><ele>100.00000000000001</ele><time>2026-05-03T09:00:51.895Z</time></trkpt><trkpt lat="43.73965598238294" lon="11.30384800720552"><ele>100.0</ele><time>2026-05-03T09:00:56.895Z</time></trkpt><trkpt lat="43.739649874545016" lon="11.30395049579885"><ele>100.0</ele><time>2026-05-03T09:01:02.896Z</time></trkpt><trkpt lat="43.73965522517571" lon="11.304042902518322"><ele>100.0</ele><time>2026-05-03T09:01:07.895Z</time></trkpt><trkpt lat="43.73964144380664" lon="11.304151645156756"><ele>100.0</ele><time>2026-05-03T09:01:13.895Z</time></trkpt><trkpt lat="43.73964411786792" lon="11.304252477999077"><ele>100.00000000000001</ele><time>2026-05-03T09:01:18.894Z</time></trkpt><trkpt lat="43.73963057713236" lon="11.304354085328692"><ele>100.0</ele><time>2026-05-03T09:01:24.894Z</time></trkpt><trkpt lat="43.73960650326268" lon="11.304444939534388"><ele>100.85714285714286</ele><time>2026-05-03T09:01:29.894Z</time></trkpt><trkpt lat="43.739584291657664" lon="11.304548869829349"><ele>101.71428571428572</ele><time>2026-05-03T09:01:34.894Z</time></trkpt><trkpt lat="43.739561473965004" lon="11.304653490293196"><ele>102.57142857142858</ele><time>2026-05-03T09:01:40.894Z</time></trkpt><trkpt lat="43.73953926590713" lon="11.30473960155653"><ele>103.42857142857143</ele><time>2026-05-03T09:01:45.894Z</time></trkpt><trkpt lat="43.73952105578433" lon="11.304825351165755"><ele>104.28571428571428</ele><time>2026-05-03T09:01:51.894Z</time></trkpt><trkpt lat="43.73949981032262" lon="11.304908289888855"><ele>105.14285714285715</ele><time>2026-05-03T09:01:56.894Z</time></trkpt><trkpt lat="43.73948839613672" lon="11.305015439439297"><ele>106.0</ele><time>2026-05-03T09:02:02.894Z</time></trkpt><trkpt lat="43.739479295023" lon="11.305108900730712"><ele>106.14285714285715</ele><time>2026-05-03T09:02:06.894Z</time></trkpt><trkpt lat="43.73945185497091" lon="11.305188918342424"><ele>106.28571428571428</ele><time>2026-05-03T09:02:11.893Z</time></trkpt><trkpt lat="43.739430150962754" lon="11.305280449638847"><ele>106.42857142857143</ele><time>2026-05-03T09:02:16.893Z</time></trkpt><trkpt lat="43.73940733982753" lon="11.305373267203548"><ele>106.57142857142858</ele><time>2026-05-03T09:02:22.893Z</time></trkpt><trkpt lat="43.73940639579785" lon="11.30546669576807"><ele>106.71428571428572</ele><time>2026-05-03T09:02:28.893Z</time></trkpt><trkpt lat="43.73939759447619" lon="11.305570121317839"><ele>106.85714285714286</ele><time>2026-05-03T09:02:33.893Z</time></trkpt><trkpt lat="43.73938754968318" lon="11.305672167944357"><ele>107.0</ele><time>2026-05-03T09:02:39.893Z</time></trkpt><trkpt lat="43.739364659835665" lon="11.305754571360554"><ele>105.42857142857143</ele><time>2026-05-03T09:02:44.893Z</time></trkpt><trkpt lat="43.73934177639892" lon="11.305844085251668"><ele>103.85714285714286</ele><time>2026-05-03T09:02:49.893Z</time></trkpt><trkpt lat="43.73932551848532" lon="11.305932099660335"><ele>102.28571428571428</ele><time>2026-05-03T09:02:54.896Z</time></trkpt><trkpt lat="43.73931295487992" lon="11.306031382526934"><ele>100.71428571428572</ele><time>2026-05-03T09:02:59.901Z</time></trkpt><trkpt lat="43.73930053644396" lon="11.306120247067518"><ele>99.14285714285714</ele><time>2026-05-03T09:03:02.903Z</time></trkpt><trkpt lat="43.73926007154391" lon="11.306210744534008"><ele>97.57142857142857</ele><time>2026-05-03T09:03:07.906Z</time></trkpt><trkpt lat="43.7392250419455" lon="11.306283226652969"><ele>96.0</ele><time>2026-05-03T09:03:12.908Z</time></trkpt><trkpt lat="43.739186714184356" lon="11.306360216251829"><ele>96.42857142857142</ele><time>2026-05-03T09:03:17.91Z</time></trkpt><trkpt lat="43.739162771089596" lon="11.306473104317853"><ele>96.85714285714286</ele><time>2026-05-03T09:03:23.911Z</time></trkpt><trkpt lat="43.73912927875542" lon="11.306568230795865"><ele>97.28571428571428</ele><time>2026-05-03T09:03:29.912Z</time></trkpt><trkpt lat="43.7391009180737" lon="11.306655729843493"><ele>97.71428571428571</ele><time>2026-05-03T09:03:35.912Z</time></trkpt><trkpt lat="43.739070473944935" lon="11.306746882845761"><ele>98.14285714285714</ele><time>2026-05-03T09:03:41.913Z</time></trkpt><trkpt lat="43.73903420270119" lon="11.306839118967076"><ele>98.57142857142857</ele><time>2026-05-03T09:03:46.913Z</time></trkpt><trkpt lat="43.73900098307664" lon="11.306915801327408"><ele>99.0</ele><time>2026-05-03T09:03:51.913Z</time></trkpt><trkpt lat="43.73896504282815" lon="11.307000297462864"><ele>99.0</ele><time>2026-05-03T09:03:56.913Z</time></trkpt><trkpt lat="43.738930593061916" lon="11.307083572724327"><ele>99.0</ele><time>2026-05-03T09:04:02.913Z</time></trkpt><trkpt lat="43.7389023375743" lon="11.307165223486958"><ele>99.0</ele><time>2026-05-03T09:04:07.913Z</time></trkpt><trkpt lat="43.738870558359665" lon="11.307251360880475"><ele>99.0</ele><time>2026-05-03T09:04:13.913Z</time></trkpt><trkpt lat="43.73883558340237" lon="11.307338580099103"><ele>99.0</ele><time>2026-05-03T09:04:19.913Z</time></trkpt><trkpt lat="43.73880973085401" lon="11.307431329394692"><ele>99.0</ele><time>2026-05-03T09:04:24.913Z</time></trkpt><trkpt lat="43.73877878987585" lon="11.307513571331265"><ele>99.0</ele><time>2026-05-03T09:04:30.913Z</time></trkpt><trkpt lat="43.738750677941695" lon="11.307602025588281"><ele>98.85714285714286</ele><time>2026-05-03T09:04:36.913Z</time></trkpt><trkpt lat="43.73872787227128" lon="11.307697819808116"><ele>98.71428571428571</ele><time>2026-05-03T09:04:42.913Z</time></trkpt><trkpt lat="43.73869220728294" lon="11.307793582665779"><ele>98.57142857142857</ele><time>2026-05-03T09:04:47.912Z</time></trkpt><trkpt lat="43.73866617599668" lon="11.307883596640323"><ele>98.42857142857143</ele><time>2026-05-03T09:04:52.912Z</time></trkpt><trkpt lat="43.73864056147074" lon="11.307977265525693"><ele>98.28571428571428</ele><time>2026-05-03T09:04:57.912Z</time></trkpt><trkpt lat="43.73861291720581" lon="11.308076111690262"><ele>98.14285714285714</ele><time>2026-05-03T09:05:02.912Z</time></trkpt><trkpt lat="43.73857480577489" lon="11.308145829663035"><ele>98.0</ele><time>2026-05-03T09:05:06.912Z</time></trkpt><trkpt lat="43.73854821707661" lon="11.30824548129057"><ele>98.0</ele><time>2026-05-03T09:05:12.912Z</time></trkpt><trkpt lat="43.738512441472295" lon="11.308321335664981"><ele>98.0</ele><time>2026-05-03T09:05:16.911Z</time></trkpt><trkpt lat="43.738492142689374" lon="11.308410416990982"><ele>98.0</ele><time>2026-05-03T09:05:22.911Z</time></trkpt><trkpt lat="43.73845465027811" lon="11.308495398541863"><ele>98.0</ele><time>2026-05-03T09:05:28.911Z</time></trkpt><trkpt lat="43.73843208224387" lon="11.308589537040737"><ele>98.0</ele><time>2026-05-03T09:05:33.911Z</time></trkpt><trkpt lat="43.7384216299066" lon="11.308681792292045"><ele>98.0</ele><time>2026-05-03T09:05:38.911Z</time></trkpt><trkpt lat="43.73841252969881" lon="11.308769570520038"><ele>98.0</ele><time>2026-05-03T09:05:45.911Z</time></trkpt><trkpt lat="43.73840555513046" lon="11.308860188118791"><ele>97.85714285714286</ele><time>2026-05-03T09:05:50.911Z</time></trkpt><trkpt lat="43.73837975487031" lon="11.30894971021463"><ele>97.71428571428572</ele><time>2026-05-03T09:05:57.911Z</time></trkpt><trkpt lat="43.73835004569715" lon="11.309042168710008"><ele>97.57142857142857</ele><time>2026-05-03T09:06:01.911Z</time></trkpt><trkpt lat="43.73831384845342" lon="11.309119252460462"><ele>97.42857142857143</ele><time>2026-05-03T09:06:06.911Z</time></trkpt><trkpt lat="43.73826079320248" lon="11.309173694953682"><ele>97.28571428571429</ele><time>2026-05-03T09:06:11.911Z</time></trkpt><trkpt lat="43.73819655034604" lon="11.309203276627365"><ele>97.14285714285714</ele><time>2026-05-03T09:06:17.911Z</time></trkpt><trkpt lat="43.73814512547633" lon="11.309269497895562"><ele>97.0</ele><time>2026-05-03T09:06:21.911Z</time></trkpt><trkpt lat="43.73807949584331" lon="11.309321193434668"><ele>97.0</ele><time>2026-05-03T09:06:26.911Z</time></trkpt><trkpt lat="43.73802621141466" lon="11.309368165361242"><ele>97.0</ele><time>2026-05-03T09:06:31.91Z</time></trkpt><trkpt lat="43.737958409494745" lon="11.309418963319175"><ele>97.0</ele><time>2026-05-03T09:06:37.91Z</time></trkpt><trkpt lat="43.737905828933314" lon="11.309487837262868"><ele>97.0</ele><time>2026-05-03T09:06:43.91Z</time></trkpt><trkpt lat="43.73784790278333" lon="11.309538045165139"><ele>97.0</ele><time>2026-05-03T09:06:48.91Z</time></trkpt><trkpt lat="43.73779373049759" lon="11.309602137448021"><ele>97.0</ele><time>2026-05-03T09:06:54.91Z</time></trkpt><trkpt lat="43.73773138979132" lon="11.309636779103313"><ele>97.0</ele><time>2026-05-03T09:07:01.91Z</time></trkpt><trkpt lat="43.73766797417931" lon="11.309683041501435"><ele>97.28571428571428</ele><time>2026-05-03T09:07:07.91Z</time></trkpt><trkpt lat="43.73760886726072" lon="11.309719604725847"><ele>97.57142857142858</ele><time>2026-05-03T09:07:12.91Z</time></trkpt><trkpt lat="43.7375733798191" lon="11.30979174892978"><ele>97.85714285714286</ele><time>2026-05-03T09:07:18.91Z</time></trkpt><trkpt lat="43.73755444780625" lon="11.309881964733629"><ele>98.14285714285714</ele><time>2026-05-03T09:07:24.909Z</time></trkpt><trkpt lat="43.73754518490683" lon="11.309975733501746"><ele>98.42857142857142</ele><time>2026-05-03T09:07:42.909Z</time></trkpt><trkpt lat="43.737532843545786" lon="11.310067089759201"><ele>98.71428571428572</ele><time>2026-05-03T09:07:50.909Z</time></trkpt><trkpt lat="43.737523625919906" lon="11.310168114891173"><ele>99.0</ele><time>2026-05-03T09:07:59.909Z</time></trkpt><trkpt lat="43.73749988833049" lon="11.310261536447365"><ele>99.0</ele><time>2026-05-03T09:08:05.909Z</time></trkpt><trkpt lat="43.73748356823363" lon="11.310359645849255"><ele>99.0</ele><time>2026-05-03T09:08:13.909Z</time></trkpt><trkpt lat="43.73748155365859" lon="11.310468374807105"><ele>99.0</ele><time>2026-05-03T09:08:18.908Z</time></trkpt><trkpt lat="43.73746899717648" lon="11.310559782856663"><ele>99.0</ele><time>2026-05-03T09:08:25.908Z</time></trkpt><trkpt lat="43.73745872167358" lon="11.31066828604443"><ele>99.0</ele><time>2026-05-03T09:08:29.908Z</time></trkpt><trkpt lat="43.73743112685898" lon="11.310765983718769"><ele>99.0</ele><time>2026-05-03T09:08:34.908Z</time></trkpt><trkpt lat="43.73740719342283" lon="11.31085804103718"><ele>99.0</ele><time>2026-05-03T09:08:40.908Z</time></trkpt><trkpt lat="43.73739212348992" lon="11.310954794981505"><ele>99.14285714285715</ele><time>2026-05-03T09:08:46.908Z</time></trkpt><trkpt lat="43.73736962657178" lon="11.31104113636797"><ele>99.28571428571428</ele><time>2026-05-03T09:08:51.908Z</time></trkpt><trkpt lat="43.737338795458065" lon="11.311120966059981"><ele>99.42857142857143</ele><time>2026-05-03T09:08:57.908Z</time></trkpt><trkpt lat="43.7373238441283" lon="11.311212068549567"><ele>99.57142857142858</ele><time>2026-05-03T09:09:01.908Z</time></trkpt><trkpt lat="43.73730352669116" lon="11.311298438558362"><ele>99.71428571428572</ele><time>2026-05-03T09:09:27.907Z</time></trkpt><trkpt lat="43.73727818375589" lon="11.311388222326828"><ele>99.85714285714286</ele><time>2026-05-03T09:09:33.906Z</time></trkpt><trkpt lat="43.73725886957751" lon="11.311481846747089"><ele>100.0</ele><time>2026-05-03T09:09:40.906Z</time></trkpt><trkpt lat="43.73724670218667" lon="11.311579622448347"><ele>100.28571428571429</ele><time>2026-05-03T09:09:47.906Z</time></trkpt><trkpt lat="43.73723715624292" lon="11.311671744800229"><ele>100.57142857142857</ele><time>2026-05-03T09:09:53.906Z</time></trkpt><trkpt lat="43.737189658873156" lon="11.311746999985587"><ele>100.85714285714286</ele><time>2026-05-03T09:09:58.906Z</time></trkpt><trkpt lat="43.737140937834255" lon="11.311803012907111"><ele>101.14285714285714</ele><time>2026-05-03T09:10:02.906Z</time></trkpt><trkpt lat="43.73707565489471" lon="11.31181653649134"><ele>101.42857142857143</ele><time>2026-05-03T09:10:08.906Z</time></trkpt><trkpt lat="43.73700333710322" lon="11.311797452494563"><ele>101.71428571428572</ele><time>2026-05-03T09:10:13.906Z</time></trkpt><trkpt lat="43.73693735250285" lon="11.311770649242746"><ele>102.0</ele><time>2026-05-03T09:10:18.906Z</time></trkpt><trkpt lat="43.73688334286698" lon="11.311722273638791"><ele>102.42857142857143</ele><time>2026-05-03T09:10:24.906Z</time></trkpt><trkpt lat="43.736810015014015" lon="11.311702680986368"><ele>102.85714285714286</ele><time>2026-05-03T09:10:29.906Z</time></trkpt><trkpt lat="43.7367344177387" lon="11.311679747441367"><ele>103.28571428571428</ele><time>2026-05-03T09:10:35.906Z</time></trkpt><trkpt lat="43.73666187890198" lon="11.311658653427953"><ele>103.71428571428572</ele><time>2026-05-03T09:10:42.905Z</time></trkpt><trkpt lat="43.73659481723722" lon="11.31162060789941"><ele>104.14285714285714</ele><time>2026-05-03T09:10:52.905Z</time></trkpt><trkpt lat="43.73652060568963" lon="11.311606966319921"><ele>104.57142857142857</ele><time>2026-05-03T09:10:58.905Z</time></trkpt><trkpt lat="43.736460819170745" lon="11.31157166481141"><ele>105.0</ele><time>2026-05-03T09:11:14.905Z</time></trkpt><trkpt lat="43.73639628978457" lon="11.311548076810553"><ele>105.0</ele><time>2026-05-03T09:11:20.905Z</time></trkpt><trkpt lat="43.736330963853945" lon="11.311530867936847"><ele>105.0</ele><time>2026-05-03T09:11:27.905Z</time></trkpt><trkpt lat="43.7362635390091" lon="11.31151007036852"><ele>105.0</ele><time>2026-05-03T09:11:38.904Z</time></trkpt><trkpt lat="43.73618719925356" lon="11.311490593369506"><ele>105.0</ele><time>2026-05-03T09:11:45.903Z</time></trkpt><trkpt lat="43.73612603785596" lon="11.311453254717817"><ele>105.0</ele><time>2026-05-03T09:11:53.903Z</time></trkpt><trkpt lat="43.736064019293224" lon="11.311432917912969"><ele>105.0</ele><time>2026-05-03T09:12:01.903Z</time></trkpt><trkpt lat="43.73599187622816" lon="11.31142432532322"><ele>105.0</ele><time>2026-05-03T09:12:10.903Z</time></trkpt><trkpt lat="43.73592463547751" lon="11.311403247587073"><ele>107.28571428571428</ele><time>2026-05-03T09:12:17.903Z</time></trkpt><trkpt lat="43.73587067651679" lon="11.311358050961461"><ele>109.57142857142857</ele><time>2026-05-03T09:12:24.903Z</time></trkpt><trkpt lat="43.735810144099815" lon="11.31131588807833"><ele>111.85714285714286</ele><time>2026-05-03T09:12:48.903Z</time></trkpt><trkpt lat="43.73574118113914" lon="11.31130070504138"><ele>114.14285714285714</ele><time>2026-05-03T09:12:54.902Z</time></trkpt><trkpt lat="43.735677221001005" lon="11.311287215326491"><ele>116.42857142857142</ele><time>2026-05-03T09:13:02.902Z</time></trkpt><trkpt lat="43.73561614072375" lon="11.311261835368374"><ele>118.71428571428571</ele><time>2026-05-03T09:13:09.902Z</time></trkpt><trkpt lat="43.73554330352645" lon="11.311240550142015"><ele>121.0</ele><time>2026-05-03T09:13:17.902Z</time></trkpt><trkpt lat="43.735481967853346" lon="11.311217720904082"><ele>121.0</ele><time>2026-05-03T09:13:24.902Z</time></trkpt><trkpt lat="43.7354222290652" lon="11.311178157536323"><ele>120.99999999999999</ele><time>2026-05-03T09:13:34.902Z</time></trkpt><trkpt lat="43.7353521524327" lon="11.311156065785934"><ele>121.0</ele><time>2026-05-03T09:13:42.901Z</time></trkpt><trkpt lat="43.73528575294187" lon="11.311147861005251"><ele>121.0</ele><time>2026-05-03T09:13:50.9Z</time></trkpt><trkpt lat="43.73522304072773" lon="11.311118679116754"><ele>120.99999999999999</ele><time>2026-05-03T09:13:58.9Z</time></trkpt><trkpt lat="43.735151169926155" lon="11.311097141130281"><ele>121.0</ele><time>2026-05-03T09:14:06.9Z</time></trkpt><trkpt lat="43.73508794748479" lon="11.311091277751212"><ele>121.0</ele><time>2026-05-03T09:14:12.9Z</time></trkpt><trkpt lat="43.73503641680204" lon="11.31101666506214"><ele>122.71428571428571</ele><time>2026-05-03T09:14:33.9Z</time></trkpt><trkpt lat="43.734959442147144" lon="11.311028991214851"><ele>124.42857142857142</ele><time>2026-05-03T09:14:45.899Z</time></trkpt><trkpt lat="43.734879785724225" lon="11.310994162293147"><ele>126.14285714285714</ele><time>2026-05-03T09:14:51.899Z</time></trkpt><trkpt lat="43.73481486565003" lon="11.310979290045335"><ele>127.85714285714286</ele><time>2026-05-03T09:15:01.899Z</time></trkpt><trkpt lat="43.734749247073474" lon="11.310957925169584"><ele>129.57142857142856</ele><time>2026-05-03T09:15:12.899Z</time></trkpt><trkpt lat="43.73467996251497" lon="11.310929106377314"><ele>131.28571428571428</ele><time>2026-05-03T09:15:20.899Z</time></trkpt><trkpt lat="43.73461425201054" lon="11.310901661924966"><ele>133.0</ele><time>2026-05-03T09:15:26.899Z</time></trkpt><trkpt lat="43.73458329258633" lon="11.310981193463705"><ele>133.0</ele><time>2026-05-03T09:15:37.899Z</time></trkpt><trkpt lat="43.73455072853028" lon="11.311059702359257"><ele>133.0</ele><time>2026-05-03T09:15:47.897Z</time></trkpt><trkpt lat="43.73451794704207" lon="11.311145004359343"><ele>133.0</ele><time>2026-05-03T09:15:55.897Z</time></trkpt><trkpt lat="43.73449738651581" lon="11.311239725418966"><ele>133.0</ele><time>2026-05-03T09:16:03.897Z</time></trkpt><trkpt lat="43.73446610329671" lon="11.3113189586806"><ele>133.0</ele><time>2026-05-03T09:16:12.897Z</time></trkpt><trkpt lat="43.73445200381752" lon="11.31143685983344"><ele>133.0</ele><time>2026-05-03T09:16:38.896Z</time></trkpt><trkpt lat="43.73448771396207" lon="11.311361158127655"><ele>133.0</ele><time>2026-05-03T09:16:57.896Z</time></trkpt><trkpt lat="43.73450098118537" lon="11.311269543808894"><ele>133.0</ele><time>2026-05-03T09:17:05.896Z</time></trkpt><trkpt lat="43.73452697606065" lon="11.311186824266604"><ele>133.0</ele><time>2026-05-03T09:17:11.896Z</time></trkpt><trkpt lat="43.73455292604715" lon="11.311100788412146"><ele>133.0</ele><time>2026-05-03T09:17:15.896Z</time></trkpt><trkpt lat="43.73456129028112" lon="11.311008813610446"><ele>133.0</ele><time>2026-05-03T09:17:21.896Z</time></trkpt><trkpt lat="43.734583360276595" lon="11.310922996789479"><ele>133.0</ele><time>2026-05-03T09:17:27.896Z</time></trkpt><trkpt lat="43.73460450557241" lon="11.310829696422806"><ele>133.0</ele><time>2026-05-03T09:17:33.896Z</time></trkpt><trkpt lat="43.7346077313135" lon="11.31073767415254"><ele>133.0</ele><time>2026-05-03T09:17:38.896Z</time></trkpt><trkpt lat="43.73462222954083" lon="11.310639477983022"><ele>133.42857142857142</ele><time>2026-05-03T09:17:43.896Z</time></trkpt><trkpt lat="43.73466144624291" lon="11.310560173484292"><ele>133.85714285714286</ele><time>2026-05-03T09:17:49.895Z</time></trkpt><trkpt lat="43.73467469493337" lon="11.310471766647808"><ele>134.28571428571428</ele><time>2026-05-03T09:17:54.895Z</time></trkpt><trkpt lat="43.7346988499745" lon="11.310382080424414"><ele>134.71428571428572</ele><time>2026-05-03T09:18:01.895Z</time></trkpt><trkpt lat="43.73471496017311" lon="11.310288846424552"><ele>135.14285714285714</ele><time>2026-05-03T09:18:07.895Z</time></trkpt><trkpt lat="43.73474150033873" lon="11.310192599799624"><ele>135.57142857142856</ele><time>2026-05-03T09:18:16.896Z</time></trkpt><trkpt lat="43.734765387143696" lon="11.310095950178866"><ele>136.0</ele><time>2026-05-03T09:18:23.9Z</time></trkpt><trkpt lat="43.73479722325595" lon="11.31000164684656"><ele>135.99999999999997</ele><time>2026-05-03T09:18:29.902Z</time></trkpt><trkpt lat="43.73480522190129" lon="11.30991397184165"><ele>136.0</ele><time>2026-05-03T09:18:35.903Z</time></trkpt><trkpt lat="43.73482706194749" lon="11.309820605754705"><ele>136.0</ele><time>2026-05-03T09:18:41.904Z</time></trkpt><trkpt lat="43.73485513578515" lon="11.309739781329656"><ele>136.0</ele><time>2026-05-03T09:18:47.905Z</time></trkpt><trkpt lat="43.73487024707001" lon="11.309647005994782"><ele>136.0</ele><time>2026-05-03T09:18:53.905Z</time></trkpt><trkpt lat="43.73489610264194" lon="11.309551666528879"><ele>135.99999999999997</ele><time>2026-05-03T09:18:59.905Z</time></trkpt><trkpt lat="43.73491570573323" lon="11.309454511171054"><ele>136.0</ele><time>2026-05-03T09:19:06.906Z</time></trkpt><trkpt lat="43.734943760350994" lon="11.309356374389912"><ele>135.57142857142856</ele><time>2026-05-03T09:19:12.906Z</time></trkpt><trkpt lat="43.734970115372484" lon="11.309267995048467"><ele>135.14285714285714</ele><time>2026-05-03T09:19:18.906Z</time></trkpt><trkpt lat="43.734984767577956" lon="11.30917436209015"><ele>134.71428571428572</ele><time>2026-05-03T09:19:24.906Z</time></trkpt><trkpt lat="43.73499547977655" lon="11.309078056133236"><ele>134.28571428571428</ele><time>2026-05-03T09:19:33.906Z</time></trkpt><trkpt lat="43.73502070877854" lon="11.308975884104681"><ele>133.85714285714286</ele><time>2026-05-03T09:19:39.906Z</time></trkpt><trkpt lat="43.735042536262846" lon="11.308884150312947"><ele>133.42857142857142</ele><time>2026-05-03T09:19:45.906Z</time></trkpt><trkpt lat="43.735063020698774" lon="11.308791430629578"><ele>133.0</ele><time>2026-05-03T09:19:51.905Z</time></trkpt><trkpt lat="43.735089176386936" lon="11.308693317279172"><ele>132.71428571428572</ele><time>2026-05-03T09:19:58.905Z</time></trkpt><trkpt lat="43.735103405500645" lon="11.308598794281025"><ele>132.42857142857144</ele><time>2026-05-03T09:20:05.905Z</time></trkpt><trkpt lat="43.735131150897566" lon="11.308514084838684"><ele>132.14285714285714</ele><time>2026-05-03T09:20:12.904Z</time></trkpt><trkpt lat="43.73515956372648" lon="11.30842411998293"><ele>131.85714285714286</ele><time>2026-05-03T09:20:19.904Z</time></trkpt><trkpt lat="43.73518554578415" lon="11.308339910801026"><ele>131.57142857142858</ele><time>2026-05-03T09:20:25.904Z</time></trkpt><trkpt lat="43.73520253394561" lon="11.308248381360844"><ele>131.28571428571428</ele><time>2026-05-03T09:20:31.904Z</time></trkpt><trkpt lat="43.735227678540355" lon="11.308166549351387"><ele>131.0</ele><time>2026-05-03T09:20:36.904Z</time></trkpt><trkpt lat="43.735258943070406" lon="11.308078880100355"><ele>131.0</ele><time>2026-05-03T09:20:41.904Z</time></trkpt><trkpt lat="43.73529026275203" lon="11.307994981350456"><ele>131.0</ele><time>2026-05-03T09:20:47.904Z</time></trkpt><trkpt lat="43.73531080826844" lon="11.307900829352421"><ele>131.0</ele><time>2026-05-03T09:20:53.904Z</time></trkpt><trkpt lat="43.735333177732194" lon="11.307799428341056"><ele>131.0</ele><time>2026-05-03T09:20:59.904Z</time></trkpt><trkpt lat="43.73535975475171" lon="11.307712045331973"><ele>131.0</ele><time>2026-05-03T09:21:05.904Z</time></trkpt><trkpt lat="43.73538831122902" lon="11.307621530044617"><ele>131.0</ele><time>2026-05-03T09:21:10.904Z</time></trkpt><trkpt lat="43.73540401251239" lon="11.307536450364964"><ele>131.0</ele><time>2026-05-03T09:21:15.904Z</time></trkpt><trkpt lat="43.73543242002948" lon="11.30744964927057"><ele>131.0</ele><time>2026-05-03T09:21:21.904Z</time></trkpt><trkpt lat="43.73545878846436" lon="11.307353296408237"><ele>131.0</ele><time>2026-05-03T09:21:27.904Z</time></trkpt><trkpt lat="43.73548017492957" lon="11.30726915134675"><ele>131.0</ele><time>2026-05-03T09:21:32.904Z</time></trkpt><trkpt lat="43.73551014339679" lon="11.307176943689075"><ele>131.0</ele><time>2026-05-03T09:21:38.903Z</time></trkpt><trkpt lat="43.735529250902076" lon="11.307090587158248"><ele>131.0</ele><time>2026-05-03T09:21:46.903Z</time></trkpt><trkpt lat="43.73555104448215" lon="11.306983901151524"><ele>131.0</ele><time>2026-05-03T09:21:52.903Z</time></trkpt><trkpt lat="43.73556918467026" lon="11.306897745045745"><ele>131.0</ele><time>2026-05-03T09:21:59.903Z</time></trkpt><trkpt lat="43.73560057624212" lon="11.306815862701567"><ele>130.71428571428572</ele><time>2026-05-03T09:22:06.904Z</time></trkpt><trkpt lat="43.73562920950679" lon="11.306737697532801"><ele>130.42857142857144</ele><time>2026-05-03T09:22:11.904Z</time></trkpt><trkpt lat="43.73566514912854" lon="11.30665693994162"><ele>130.14285714285714</ele><time>2026-05-03T09:22:17.904Z</time></trkpt><trkpt lat="43.73567075305847" lon="11.306569263529017"><ele>129.85714285714286</ele><time>2026-05-03T09:22:25.904Z</time></trkpt><trkpt lat="43.73572358703695" lon="11.306520873586651"><ele>129.57142857142856</ele><time>2026-05-03T09:22:33.903Z</time></trkpt><trkpt lat="43.7357830495186" lon="11.306483968332964"><ele>129.28571428571428</ele><time>2026-05-03T09:22:42.903Z</time></trkpt><trkpt lat="43.73581910574553" lon="11.30640587966676"><ele>129.0</ele><time>2026-05-03T09:22:49.903Z</time></trkpt><trkpt lat="43.735843378709504" lon="11.306310261690749"><ele>128.7142857142857</ele><time>2026-05-03T09:22:56.903Z</time></trkpt><trkpt lat="43.735866953285964" lon="11.30622793127663"><ele>128.42857142857142</ele><time>2026-05-03T09:23:02.903Z</time></trkpt><trkpt lat="43.73588679229335" lon="11.306133465173296"><ele>128.14285714285714</ele><time>2026-05-03T09:23:10.903Z</time></trkpt><trkpt lat="43.73590748736524" lon="11.306038366940502"><ele>127.85714285714285</ele><time>2026-05-03T09:23:18.903Z</time></trkpt><trkpt lat="43.73592799576516" lon="11.305938158620059"><ele>127.57142857142856</ele><time>2026-05-03T09:23:24.903Z</time></trkpt><trkpt lat="43.7359478115368" lon="11.305839359678076"><ele>127.28571428571429</ele><time>2026-05-03T09:23:30.903Z</time></trkpt><trkpt lat="43.735968909566864" lon="11.305756671901888"><ele>127.0</ele><time>2026-05-03T09:23:36.903Z</time></trkpt><trkpt lat="43.735992922295154" lon="11.305661178816585"><ele>127.0</ele><time>2026-05-03T09:23:44.903Z</time></trkpt><trkpt lat="43.73601373851442" lon="11.305570840676122"><ele>127.0</ele><time>2026-05-03T09:23:50.903Z</time></trkpt><trkpt lat="43.736044608453845" lon="11.30547235969527"><ele>127.0</ele><time>2026-05-03T09:23:56.903Z</time></trkpt><trkpt lat="43.73606000099035" lon="11.305372851421161"><ele>127.0</ele><time>2026-05-03T09:24:03.903Z</time></trkpt><trkpt lat="43.7360794022468" lon="11.305284693162163"><ele>127.0</ele><time>2026-05-03T09:24:08.902Z</time></trkpt><trkpt lat="43.73609206862314" lon="11.3051851509004"><ele>127.0</ele><time>2026-05-03T09:24:14.902Z</time></trkpt><trkpt lat="43.73611600896217" lon="11.305091711127869"><ele>127.0</ele><time>2026-05-03T09:24:21.902Z</time></trkpt><trkpt lat="43.73615494024328" lon="11.305007810804215"><ele>127.14285714285714</ele><time>2026-05-03T09:24:52.902Z</time></trkpt><trkpt lat="43.73616218966112" lon="11.304913684525587"><ele>127.28571428571428</ele><time>2026-05-03T09:24:59.902Z</time></trkpt><trkpt lat="43.736174855274015" lon="11.30481696568337"><ele>127.42857142857142</ele><time>2026-05-03T09:25:06.902Z</time></trkpt><trkpt lat="43.73617375915016" lon="11.304717435285305"><ele>127.57142857142857</ele><time>2026-05-03T09:25:13.902Z</time></trkpt><trkpt lat="43.73617257764993" lon="11.304614640221917"><ele>127.7142857142857</ele><time>2026-05-03T09:25:19.902Z</time></trkpt><trkpt lat="43.736184473260266" lon="11.304526798494141"><ele>127.85714285714285</ele><time>2026-05-03T09:25:26.901Z</time></trkpt><trkpt lat="43.7361849503034" lon="11.304433563735024"><ele>128.0</ele><time>2026-05-03T09:25:33.901Z</time></trkpt><trkpt lat="43.73618196543687" lon="11.304341633059789"><ele>127.71428571428571</ele><time>2026-05-03T09:25:39.901Z</time></trkpt><trkpt lat="43.73619163185594" lon="11.30424475949131"><ele>127.42857142857142</ele><time>2026-05-03T09:25:46.901Z</time></trkpt><trkpt lat="43.736201247865246" lon="11.30415779910269"><ele>127.14285714285714</ele><time>2026-05-03T09:25:52.901Z</time></trkpt><trkpt lat="43.736212176372995" lon="11.304068153732343"><ele>126.85714285714286</ele><time>2026-05-03T09:26:00.901Z</time></trkpt><trkpt lat="43.736214642526726" lon="11.304160428528553"><ele>126.57142857142857</ele><time>2026-05-03T09:27:31.9Z</time></trkpt><trkpt lat="43.73619574948238" lon="11.304249892687627"><ele>126.28571428571428</ele><time>2026-05-03T09:27:41.9Z</time></trkpt><trkpt lat="43.736182590388154" lon="11.304335651226932"><ele>126.0</ele><time>2026-05-03T09:27:48.9Z</time></trkpt><trkpt lat="43.73617910129187" lon="11.304427631450602"><ele>126.0</ele><time>2026-05-03T09:27:55.9Z</time></trkpt><trkpt lat="43.7361790781405" lon="11.304518150658655"><ele>126.0</ele><time>2026-05-03T09:28:04.899Z</time></trkpt><trkpt lat="43.73617678650685" lon="11.304618117997418"><ele>126.0</ele><time>2026-05-03T09:28:11.899Z</time></trkpt><trkpt lat="43.73616307507707" lon="11.3047089579465"><ele>126.0</ele><time>2026-05-03T09:28:18.899Z</time></trkpt><trkpt lat="43.73616578407176" lon="11.304799387550993"><ele>126.0</ele><time>2026-05-03T09:28:24.896Z</time></trkpt><trkpt lat="43.73616620309452" lon="11.304897983256904"><ele>126.0</ele><time>2026-05-03T09:28:30.895Z</time></trkpt><trkpt lat="43.73614710320213" lon="11.304992609962897"><ele>126.0</ele><time>2026-05-03T09:28:38.895Z</time></trkpt><trkpt lat="43.736139200679816" lon="11.305087624476121"><ele>126.14285714285714</ele><time>2026-05-03T09:28:45.895Z</time></trkpt><trkpt lat="43.736119908242294" lon="11.305171074040556"><ele>126.28571428571428</ele><time>2026-05-03T09:29:34.895Z</time></trkpt><trkpt lat="43.736093795959114" lon="11.305252977238247"><ele>126.42857142857143</ele><time>2026-05-03T09:29:41.894Z</time></trkpt><trkpt lat="43.736067151902056" lon="11.305350434403968"><ele>126.57142857142857</ele><time>2026-05-03T09:29:47.894Z</time></trkpt><trkpt lat="43.73605856218013" lon="11.305443227063872"><ele>126.71428571428571</ele><time>2026-05-03T09:29:54.894Z</time></trkpt><trkpt lat="43.73602716436723" lon="11.305536271317324"><ele>126.85714285714286</ele><time>2026-05-03T09:30:00.894Z</time></trkpt><trkpt lat="43.736015478558905" lon="11.305635434069378"><ele>127.0</ele><time>2026-05-03T09:30:08.894Z</time></trkpt><trkpt lat="43.73599514540645" lon="11.305717940497054"><ele>127.0</ele><time>2026-05-03T09:30:14.894Z</time></trkpt><trkpt lat="43.73598071560662" lon="11.305823827337951"><ele>127.0</ele><time>2026-05-03T09:30:21.894Z</time></trkpt><trkpt lat="43.7359548995155" lon="11.30591695997954"><ele>127.0</ele><time>2026-05-03T09:30:27.892Z</time></trkpt><trkpt lat="43.73593299346852" lon="11.306004285894195"><ele>127.0</ele><time>2026-05-03T09:30:33.891Z</time></trkpt><trkpt lat="43.73591571966087" lon="11.306089763510021"><ele>127.0</ele><time>2026-05-03T09:30:38.892Z</time></trkpt><trkpt lat="43.735890966417585" lon="11.306183778309569"><ele>127.0</ele><time>2026-05-03T09:30:45.892Z</time></trkpt><trkpt lat="43.735864787477674" lon="11.30627857815931"><ele>127.0</ele><time>2026-05-03T09:30:51.892Z</time></trkpt><trkpt lat="43.735833812890505" lon="11.30636200977042"><ele>127.0</ele><time>2026-05-03T09:30:57.891Z</time></trkpt><trkpt lat="43.735803848982805" lon="11.30645346980983"><ele>127.0</ele><time>2026-05-03T09:31:03.891Z</time></trkpt><trkpt lat="43.73575753050269" lon="11.306514649586763"><ele>127.0</ele><time>2026-05-03T09:31:09.891Z</time></trkpt><trkpt lat="43.735684698718686" lon="11.30652165847385"><ele>127.0</ele><time>2026-05-03T09:31:15.891Z</time></trkpt><trkpt lat="43.7356284608313" lon="11.30647830951074"><ele>127.0</ele><time>2026-05-03T09:31:21.891Z</time></trkpt><trkpt lat="43.735574062398925" lon="11.30642330836692"><ele>127.0</ele><time>2026-05-03T09:31:27.891Z</time></trkpt><trkpt lat="43.735502175930115" lon="11.306388681632102"><ele>127.0</ele><time>2026-05-03T09:31:34.891Z</time></trkpt><trkpt lat="43.73543857856603" lon="11.306349751862781"><ele>127.0</ele><time>2026-05-03T09:31:40.891Z</time></trkpt><trkpt lat="43.73537160095513" lon="11.306314651010807"><ele>127.0</ele><time>2026-05-03T09:31:47.891Z</time></trkpt><trkpt lat="43.73530696468321" lon="11.306295332785774"><ele>127.0</ele><time>2026-05-03T09:31:53.891Z</time></trkpt><trkpt lat="43.735254290676686" lon="11.306241597266395"><ele>127.0</ele><time>2026-05-03T09:32:00.891Z</time></trkpt><trkpt lat="43.73520827624239" lon="11.306180909910548"><ele>127.0</ele><time>2026-05-03T09:32:08.891Z</time></trkpt><trkpt lat="43.73518405303511" lon="11.306083657620855"><ele>127.0</ele><time>2026-05-03T09:32:15.891Z</time></trkpt><trkpt lat="43.73514628784237" lon="11.306013027002882"><ele>127.0</ele><time>2026-05-03T09:32:22.891Z</time></trkpt><trkpt lat="43.73509245540559" lon="11.305949719382957"><ele>126.57142857142858</ele><time>2026-05-03T09:32:30.89Z</time></trkpt><trkpt lat="43.73504321444221" lon="11.305892336578488"><ele>126.14285714285714</ele><time>2026-05-03T09:32:36.888Z</time></trkpt><trkpt lat="43.73497816778903" lon="11.305858587844131"><ele>125.71428571428572</ele><time>2026-05-03T09:32:43.887Z</time></trkpt><trkpt lat="43.73493185976457" lon="11.305786902118284"><ele>125.28571428571429</ele><time>2026-05-03T09:32:48.887Z</time></trkpt><trkpt lat="43.73487805656248" lon="11.305739653668718"><ele>124.85714285714286</ele><time>2026-05-03T09:32:57.887Z</time></trkpt><trkpt lat="43.73483923840879" lon="11.305666438098017"><ele>124.42857142857143</ele><time>2026-05-03T09:33:04.887Z</time></trkpt><trkpt lat="43.734809371904255" lon="11.305589538895006"><ele>124.0</ele><time>2026-05-03T09:33:09.887Z</time></trkpt><trkpt lat="43.73475259252739" lon="11.305550680377758"><ele>123.28571428571429</ele><time>2026-05-03T09:33:13.887Z</time></trkpt><trkpt lat="43.73468723046859" lon="11.305530453266337"><ele>122.57142857142858</ele><time>2026-05-03T09:33:19.887Z</time></trkpt><trkpt lat="43.73461783304515" lon="11.305517102361595"><ele>121.85714285714286</ele><time>2026-05-03T09:33:25.887Z</time></trkpt><trkpt lat="43.734550327566645" lon="11.305532808319137"><ele>121.14285714285714</ele><time>2026-05-03T09:33:32.887Z</time></trkpt><trkpt lat="43.734483752400806" lon="11.305521443308496"><ele>120.42857142857143</ele><time>2026-05-03T09:33:41.887Z</time></trkpt><trkpt lat="43.7344204285028" lon="11.305494015387506"><ele>119.71428571428572</ele><time>2026-05-03T09:33:49.887Z</time></trkpt><trkpt lat="43.73435241880153" lon="11.305487397738085"><ele>119.0</ele><time>2026-05-03T09:33:56.887Z</time></trkpt><trkpt lat="43.73428090552697" lon="11.305460703768391"><ele>117.28571428571429</ele><time>2026-05-03T09:34:03.887Z</time></trkpt><trkpt lat="43.734200437986324" lon="11.305446621763538"><ele>115.57142857142857</ele><time>2026-05-03T09:34:10.886Z</time></trkpt><trkpt lat="43.734124490832244" lon="11.305425303519593"><ele>113.85714285714286</ele><time>2026-05-03T09:34:21.886Z</time></trkpt><trkpt lat="43.73405381903611" lon="11.30543002354235"><ele>112.14285714285714</ele><time>2026-05-03T09:34:28.886Z</time></trkpt><trkpt lat="43.73399095858224" lon="11.30544068852002"><ele>110.42857142857143</ele><time>2026-05-03T09:34:34.886Z</time></trkpt><trkpt lat="43.73392175218744" lon="11.305405794136677"><ele>108.71428571428572</ele><time>2026-05-03T09:34:42.883Z</time></trkpt><trkpt lat="43.73385497056184" lon="11.305422166959207"><ele>107.0</ele><time>2026-05-03T09:34:50.882Z</time></trkpt><trkpt lat="43.733792428357276" lon="11.305391434910648"><ele>107.00000000000001</ele><time>2026-05-03T09:34:57.882Z</time></trkpt><trkpt lat="43.7337493843647" lon="11.30532707442918"><ele>107.0</ele><time>2026-05-03T09:35:02.882Z</time></trkpt><trkpt lat="43.73371767010794" lon="11.305236886378003"><ele>107.0</ele><time>2026-05-03T09:35:08.882Z</time></trkpt><trkpt lat="43.733683291159515" lon="11.305153400769397"><ele>107.0</ele><time>2026-05-03T09:35:15.882Z</time></trkpt><trkpt lat="43.73364406469632" lon="11.30506827667894"><ele>107.0</ele><time>2026-05-03T09:35:21.882Z</time></trkpt><trkpt lat="43.73360626293696" lon="11.304993141340779"><ele>107.00000000000001</ele><time>2026-05-03T09:35:27.882Z</time></trkpt><trkpt lat="43.733575627038505" lon="11.30490464762227"><ele>107.0</ele><time>2026-05-03T09:35:32.882Z</time></trkpt><trkpt lat="43.73355814725668" lon="11.30480644567624"><ele>107.00000000000001</ele><time>2026-05-03T09:35:37.882Z</time></trkpt><trkpt lat="43.733554299007636" lon="11.304705263982695"><ele>107.0</ele><time>2026-05-03T09:35:43.882Z</time></trkpt><trkpt lat="43.733544938939765" lon="11.304609204154673"><ele>107.0</ele><time>2026-05-03T09:35:49.882Z</time></trkpt><trkpt lat="43.733550909406326" lon="11.304511085286626"><ele>107.0</ele><time>2026-05-03T09:35:54.881Z</time></trkpt><trkpt lat="43.7335569323068" lon="11.304416835921408"><ele>107.0</ele><time>2026-05-03T09:36:00.881Z</time></trkpt><trkpt lat="43.7335609922682" lon="11.304327890424158"><ele>107.00000000000001</ele><time>2026-05-03T09:36:05.881Z</time></trkpt><trkpt lat="43.733573111031575" lon="11.304240418855532"><ele>107.0</ele><time>2026-05-03T09:36:10.881Z</time></trkpt><trkpt lat="43.73357233644045" lon="11.30413909075842"><ele>107.00000000000001</ele><time>2026-05-03T09:36:16.881Z</time></trkpt><trkpt lat="43.73354547763811" lon="11.304051003620447"><ele>107.0</ele><time>2026-05-03T09:36:24.881Z</time></trkpt><trkpt lat="43.73353207700295" lon="11.303954263963746"><ele>107.0</ele><time>2026-05-03T09:36:31.881Z</time></trkpt><trkpt lat="43.73354288209305" lon="11.303858923925276"><ele>107.0</ele><time>2026-05-03T09:36:39.881Z</time></trkpt><trkpt lat="43.73355185977238" lon="11.30377211834378"><ele>107.0</ele><time>2026-05-03T09:36:46.879Z</time></trkpt><trkpt lat="43.73355565721766" lon="11.303671983822673"><ele>107.00000000000001</ele><time>2026-05-03T09:36:52.878Z</time></trkpt><trkpt lat="43.73354888926231" lon="11.303564715316176"><ele>107.0</ele><time>2026-05-03T09:37:00.878Z</time></trkpt><trkpt lat="43.7335671041996" lon="11.303476381394901"><ele>107.0</ele><time>2026-05-03T09:37:06.878Z</time></trkpt><trkpt lat="43.733561455430205" lon="11.303381103301305"><ele>106.99999999999999</ele><time>2026-05-03T09:37:12.878Z</time></trkpt><trkpt lat="43.73356545620715" lon="11.303293321235927"><ele>106.99999999999999</ele><time>2026-05-03T09:37:17.878Z</time></trkpt><trkpt lat="43.73354394288392" lon="11.30319035439084"><ele>107.0</ele><time>2026-05-03T09:37:22.878Z</time></trkpt><trkpt lat="43.73349978041609" lon="11.303111785151653"><ele>107.0</ele><time>2026-05-03T09:37:29.878Z</time></trkpt><trkpt lat="43.7333503494144" lon="11.303001432073419"><ele>103.5</ele><time>2026-05-03T09:37:58.013Z</time></trkpt><trkpt lat="43.73324297500708" lon="11.302929434757203"><ele>100.0</ele><time>2026-05-03T09:37:59.017Z</time></trkpt><trkpt lat="43.73305260039983" lon="11.302933464491003"><ele>96.5</ele><time>2026-05-03T09:38:00.878Z</time></trkpt><trkpt lat="43.73298769651255" lon="11.302970348447833"><ele>93.0</ele><time>2026-05-03T09:38:03.878Z</time></trkpt><trkpt lat="43.732919073584654" lon="11.30294442292864"><ele>93.00000000000001</ele><time>2026-05-03T09:38:13.877Z</time></trkpt><trkpt lat="43.73293071090258" lon="11.302857384490206"><ele>93.0</ele><time>2026-05-03T09:38:18.877Z</time></trkpt><trkpt lat="43.732941061517494" lon="11.302753894411188"><ele>93.0</ele><time>2026-05-03T09:38:24.877Z</time></trkpt><trkpt lat="43.7329433819887" lon="11.302660166243108"><ele>93.0</ele><time>2026-05-03T09:38:29.877Z</time></trkpt><trkpt lat="43.732943105190714" lon="11.302549791303466"><ele>93.0</ele><time>2026-05-03T09:38:35.877Z</time></trkpt><trkpt lat="43.732917544412196" lon="11.302460560716918"><ele>93.00000000000001</ele><time>2026-05-03T09:38:41.877Z</time></trkpt><trkpt lat="43.73294102208881" lon="11.302361608241103"><ele>93.0</ele><time>2026-05-03T09:38:47.877Z</time></trkpt><trkpt lat="43.7329494073103" lon="11.302258050745126"><ele>93.14285714285715</ele><time>2026-05-03T09:38:53.874Z</time></trkpt><trkpt lat="43.73295869903081" lon="11.30215777397407"><ele>93.28571428571429</ele><time>2026-05-03T09:38:58.873Z</time></trkpt><trkpt lat="43.73296242909506" lon="11.30205760461204"><ele>93.42857142857143</ele><time>2026-05-03T09:39:03.873Z</time></trkpt><trkpt lat="43.732971035818565" lon="11.301961010133892"><ele>93.57142857142858</ele><time>2026-05-03T09:39:07.873Z</time></trkpt><trkpt lat="43.732978251444095" lon="11.301862364021858"><ele>93.71428571428571</ele><time>2026-05-03T09:39:12.873Z</time></trkpt><trkpt lat="43.73299114632501" lon="11.301767854602899"><ele>93.85714285714286</ele><time>2026-05-03T09:39:17.873Z</time></trkpt><trkpt lat="43.733006422138246" lon="11.301676946606237"><ele>94.0</ele><time>2026-05-03T09:39:22.873Z</time></trkpt><trkpt lat="43.73301899032987" lon="11.3015815100128"><ele>94.0</ele><time>2026-05-03T09:39:28.873Z</time></trkpt><trkpt lat="43.73303450780975" lon="11.301491489798186"><ele>94.0</ele><time>2026-05-03T09:39:34.873Z</time></trkpt><trkpt lat="43.733047005705174" lon="11.30140431094689"><ele>94.0</ele><time>2026-05-03T09:39:40.873Z</time></trkpt><trkpt lat="43.73305390163378" lon="11.301311517328482"><ele>94.0</ele><time>2026-05-03T09:39:45.873Z</time></trkpt><trkpt lat="43.73305766662622" lon="11.301207690595351"><ele>94.0</ele><time>2026-05-03T09:39:50.872Z</time></trkpt><trkpt lat="43.733050430698306" lon="11.301107952715094"><ele>94.0</ele><time>2026-05-03T09:39:55.872Z</time></trkpt><trkpt lat="43.733050986881466" lon="11.301013502603578"><ele>94.0</ele><time>2026-05-03T09:39:59.872Z</time></trkpt><trkpt lat="43.7330625694027" lon="11.300913173173742"><ele>93.85714285714286</ele><time>2026-05-03T09:40:05.872Z</time></trkpt><trkpt lat="43.733039130955284" lon="11.300817957368533"><ele>93.71428571428571</ele><time>2026-05-03T09:40:11.872Z</time></trkpt><trkpt lat="43.73304475955343" lon="11.300723934626994"><ele>93.57142857142858</ele><time>2026-05-03T09:40:16.872Z</time></trkpt><trkpt lat="43.73305599957419" lon="11.30063144546303"><ele>93.42857142857143</ele><time>2026-05-03T09:40:21.872Z</time></trkpt><trkpt lat="43.733061542839344" lon="11.300536915737554"><ele>93.28571428571429</ele><time>2026-05-03T09:40:27.872Z</time></trkpt><trkpt lat="43.73307782156139" lon="11.300430377804139"><ele>93.14285714285715</ele><time>2026-05-03T09:40:33.872Z</time></trkpt><trkpt lat="43.73309145557925" lon="11.300341550659132"><ele>93.0</ele><time>2026-05-03T09:40:37.872Z</time></trkpt><trkpt lat="43.73308497849068" lon="11.300253133262405"><ele>92.28571428571429</ele><time>2026-05-03T09:40:42.873Z</time></trkpt><trkpt lat="43.7331056599537" lon="11.300158779838185"><ele>91.57142857142857</ele><time>2026-05-03T09:40:47.873Z</time></trkpt><trkpt lat="43.73310971189947" lon="11.300064271634307"><ele>90.85714285714286</ele><time>2026-05-03T09:40:52.873Z</time></trkpt><trkpt lat="43.733117337488316" lon="11.299965574232097"><ele>90.14285714285714</ele><time>2026-05-03T09:40:57.872Z</time></trkpt><trkpt lat="43.73312528208994" lon="11.299878389183897"><ele>89.42857142857143</ele><time>2026-05-03T09:41:02.871Z</time></trkpt><trkpt lat="43.733142892831424" lon="11.299791423517453"><ele>88.71428571428572</ele><time>2026-05-03T09:41:08.871Z</time></trkpt><trkpt lat="43.733156987411164" lon="11.299699538513567"><ele>88.0</ele><time>2026-05-03T09:41:15.871Z</time></trkpt><trkpt lat="43.733178282412325" lon="11.29961041144086"><ele>88.0</ele><time>2026-05-03T09:41:19.871Z</time></trkpt><trkpt lat="43.73318777256136" lon="11.299507575037909"><ele>88.0</ele><time>2026-05-03T09:41:24.871Z</time></trkpt><trkpt lat="43.733197197915615" lon="11.299419393535809"><ele>88.0</ele><time>2026-05-03T09:41:29.871Z</time></trkpt><trkpt lat="43.73320542294577" lon="11.299326667063431"><ele>88.0</ele><time>2026-05-03T09:41:33.871Z</time></trkpt><trkpt lat="43.733246511447426" lon="11.299252671690969"><ele>88.0</ele><time>2026-05-03T09:41:39.871Z</time></trkpt><trkpt lat="43.73327901865821" lon="11.299145644423987"><ele>88.0</ele><time>2026-05-03T09:41:47.871Z</time></trkpt><trkpt lat="43.733298677958565" lon="11.299057596238743"><ele>88.0</ele><time>2026-05-03T09:41:52.871Z</time></trkpt><trkpt lat="43.73332040885263" lon="11.298966214204704"><ele>87.71428571428572</ele><time>2026-05-03T09:41:58.871Z</time></trkpt><trkpt lat="43.73334505173627" lon="11.298857663863158"><ele>87.42857142857143</ele><time>2026-05-03T09:42:03.871Z</time></trkpt><trkpt lat="43.73335499643386" lon="11.298763387212409"><ele>87.14285714285714</ele><time>2026-05-03T09:42:08.871Z</time></trkpt><trkpt lat="43.733388575823284" lon="11.298684980813992"><ele>86.85714285714286</ele><time>2026-05-03T09:42:13.871Z</time></trkpt><trkpt lat="43.73343969045283" lon="11.298606525451063"><ele>86.57142857142857</ele><time>2026-05-03T09:42:18.871Z</time></trkpt><trkpt lat="43.73348253088883" lon="11.298529400298875"><ele>86.28571428571429</ele><time>2026-05-03T09:42:22.871Z</time></trkpt><trkpt lat="43.733520607754414" lon="11.29845497724588"><ele>86.0</ele><time>2026-05-03T09:42:26.871Z</time></trkpt><trkpt lat="43.73356807783707" lon="11.298396549896779"><ele>86.85714285714286</ele><time>2026-05-03T09:42:31.871Z</time></trkpt><trkpt lat="43.73363152279298" lon="11.298342550447236"><ele>87.71428571428572</ele><time>2026-05-03T09:42:36.871Z</time></trkpt><trkpt lat="43.733683647851755" lon="11.298280103883668"><ele>88.57142857142858</ele><time>2026-05-03T09:42:41.871Z</time></trkpt><trkpt lat="43.73374638819829" lon="11.29824262757234"><ele>89.42857142857143</ele><time>2026-05-03T09:42:46.871Z</time></trkpt><trkpt lat="43.73381616021419" lon="11.298238971647763"><ele>90.28571428571428</ele><time>2026-05-03T09:42:51.871Z</time></trkpt><trkpt lat="43.73388144336185" lon="11.298240452957602"><ele>91.14285714285715</ele><time>2026-05-03T09:42:56.871Z</time></trkpt><trkpt lat="43.73394995417761" lon="11.29820386443404"><ele>92.0</ele><time>2026-05-03T09:43:03.87Z</time></trkpt><trkpt lat="43.73399961250137" lon="11.29813108519387"><ele>91.14285714285715</ele><time>2026-05-03T09:43:08.87Z</time></trkpt><trkpt lat="43.73403090791052" lon="11.298029136060915"><ele>90.28571428571428</ele><time>2026-05-03T09:43:13.869Z</time></trkpt><trkpt lat="43.73405057296805" lon="11.297945255822842"><ele>89.42857142857143</ele><time>2026-05-03T09:43:19.87Z</time></trkpt><trkpt lat="43.734086192538115" lon="11.297871980089921"><ele>88.57142857142858</ele><time>2026-05-03T09:43:23.87Z</time></trkpt><trkpt lat="43.734148269840425" lon="11.297818261268056"><ele>87.71428571428572</ele><time>2026-05-03T09:43:29.87Z</time></trkpt><trkpt lat="43.734204930114224" lon="11.29777147107715"><ele>86.85714285714286</ele><time>2026-05-03T09:43:34.87Z</time></trkpt><trkpt lat="43.734260239819335" lon="11.297718180477203"><ele>86.0</ele><time>2026-05-03T09:43:39.87Z</time></trkpt><trkpt lat="43.73431642786959" lon="11.29766728344047"><ele>86.00000000000001</ele><time>2026-05-03T09:43:44.87Z</time></trkpt><trkpt lat="43.734364333582896" lon="11.297606444820094"><ele>86.0</ele><time>2026-05-03T09:43:49.869Z</time></trkpt><trkpt lat="43.734413366970195" lon="11.297529294154552"><ele>86.0</ele><time>2026-05-03T09:43:53.869Z</time></trkpt><trkpt lat="43.7344660900835" lon="11.297466866732318"><ele>86.0</ele><time>2026-05-03T09:43:58.869Z</time></trkpt><trkpt lat="43.73452867717117" lon="11.297440064518666"><ele>86.0</ele><time>2026-05-03T09:44:04.869Z</time></trkpt><trkpt lat="43.73459838661998" lon="11.2974233305218"><ele>86.00000000000001</ele><time>2026-05-03T09:44:09.869Z</time></trkpt><trkpt lat="43.7346654504107" lon="11.29742128936161"><ele>86.0</ele><time>2026-05-03T09:44:13.869Z</time></trkpt><trkpt lat="43.73473675284991" lon="11.297420828268603"><ele>86.00000000000001</ele><time>2026-05-03T09:44:18.869Z</time></trkpt><trkpt lat="43.73479859901767" lon="11.297391569455366"><ele>86.0</ele><time>2026-05-03T09:44:23.869Z</time></trkpt><trkpt lat="43.73485377685248" lon="11.297324682584371"><ele>86.0</ele><time>2026-05-03T09:44:31.869Z</time></trkpt><trkpt lat="43.73490282011216" lon="11.29726599027385"><ele>86.0</ele><time>2026-05-03T09:44:38.869Z</time></trkpt><trkpt lat="43.73494120297218" lon="11.297185502366348"><ele>86.0</ele><time>2026-05-03T09:44:45.869Z</time></trkpt><trkpt lat="43.7349927288275" lon="11.297128797612842"><ele>86.00000000000001</ele><time>2026-05-03T09:44:51.869Z</time></trkpt><trkpt lat="43.73503618495569" lon="11.297059850081304"><ele>86.0</ele><time>2026-05-03T09:44:55.869Z</time></trkpt><trkpt lat="43.735094654228455" lon="11.297026880019207"><ele>86.00000000000001</ele><time>2026-05-03T09:45:00.869Z</time></trkpt><trkpt lat="43.73515886129268" lon="11.297009510488783"><ele>86.0</ele><time>2026-05-03T09:45:05.869Z</time></trkpt><trkpt lat="43.7352249165228" lon="11.296983676468114"><ele>86.0</ele><time>2026-05-03T09:45:10.867Z</time></trkpt><trkpt lat="43.73528761202614" lon="11.296954216075143"><ele>86.0</ele><time>2026-05-03T09:45:16.867Z</time></trkpt><trkpt lat="43.73535004222634" lon="11.296898724165105"><ele>86.0</ele><time>2026-05-03T09:45:22.867Z</time></trkpt><trkpt lat="43.73541184235068" lon="11.296848400665837"><ele>86.00000000000001</ele><time>2026-05-03T09:45:27.867Z</time></trkpt><trkpt lat="43.73546081257823" lon="11.296770846438436"><ele>86.0</ele><time>2026-05-03T09:45:33.867Z</time></trkpt><trkpt lat="43.73551756595366" lon="11.296722349419978"><ele>86.14285714285715</ele><time>2026-05-03T09:45:38.867Z</time></trkpt><trkpt lat="43.73557941909828" lon="11.296677627787634"><ele>86.28571428571429</ele><time>2026-05-03T09:45:45.867Z</time></trkpt><trkpt lat="43.73564722351994" lon="11.296635594934422"><ele>86.42857142857143</ele><time>2026-05-03T09:45:51.866Z</time></trkpt><trkpt lat="43.73571587199396" lon="11.296578672413787"><ele>86.57142857142858</ele><time>2026-05-03T09:45:56.866Z</time></trkpt><trkpt lat="43.73577736445139" lon="11.29653201167651"><ele>86.71428571428572</ele><time>2026-05-03T09:46:01.866Z</time></trkpt><trkpt lat="43.73584295117718" lon="11.29648938212581"><ele>86.85714285714286</ele><time>2026-05-03T09:46:05.866Z</time></trkpt><trkpt lat="43.73590664728704" lon="11.29646591919094"><ele>87.0</ele><time>2026-05-03T09:46:09.866Z</time></trkpt><trkpt lat="43.73597473305246" lon="11.296459178373643"><ele>86.83333333333333</ele><time>2026-05-03T09:46:16.866Z</time></trkpt><trkpt lat="43.73600303738557" lon="11.296379887995652"><ele>86.66666666666667</ele><time>2026-05-03T09:46:24.866Z</time></trkpt><trkpt lat="43.73603768779643" lon="11.296251409978176"><ele>86.5</ele><time>2026-05-03T09:46:33.866Z</time></trkpt><trkpt lat="43.73612132748249" lon="11.296222145207276"><ele>86.33333333333334</ele><time>2026-05-03T09:46:41.866Z</time></trkpt><trkpt lat="43.73618583339655" lon="11.2962753026928"><ele>86.16666666666667</ele><time>2026-05-03T09:46:46.866Z</time></trkpt><trkpt lat="43.736241879043746" lon="11.296354625159887"><ele>86.0</ele><time>2026-05-03T09:46:49.866Z</time></trkpt><trkpt lat="43.73628361441887" lon="11.296460508956397"><ele>86.00000000000001</ele><time>2026-05-03T09:46:52.866Z</time></trkpt><trkpt lat="43.73633664052661" lon="11.296520341458182"><ele>86.0</ele><time>2026-05-03T09:46:55.866Z</time></trkpt><trkpt lat="43.73639100658871" lon="11.296591752551086"><ele>86.0</ele><time>2026-05-03T09:46:58.866Z</time></trkpt><trkpt lat="43.73645106950085" lon="11.296654131439272"><ele>86.0</ele><time>2026-05-03T09:47:02.866Z</time></trkpt><trkpt lat="43.73653335088253" lon="11.296701555478318"><ele>86.0</ele><time>2026-05-03T09:47:11.866Z</time></trkpt><trkpt lat="43.736598043733665" lon="11.296743932545441"><ele>86.00000000000001</ele><time>2026-05-03T09:47:16.865Z</time></trkpt><trkpt lat="43.736648720925565" lon="11.296804739396427"><ele>86.0</ele><time>2026-05-03T09:47:21.864Z</time></trkpt><trkpt lat="43.73670265070634" lon="11.296853080700904"><ele>86.0</ele><time>2026-05-03T09:47:25.865Z</time></trkpt><trkpt lat="43.73675864439715" lon="11.29692199347697"><ele>86.0</ele><time>2026-05-03T09:47:30.864Z</time></trkpt><trkpt lat="43.73681922983531" lon="11.296981862247472"><ele>86.0</ele><time>2026-05-03T09:47:35.863Z</time></trkpt><trkpt lat="43.736877154768756" lon="11.297036642608312"><ele>86.0</ele><time>2026-05-03T09:47:38.863Z</time></trkpt><trkpt lat="43.73696980760761" lon="11.297068338397024"><ele>86.0</ele><time>2026-05-03T09:47:42.863Z</time></trkpt><trkpt lat="43.73704400125116" lon="11.297085958257329"><ele>86.0</ele><time>2026-05-03T09:47:46.863Z</time></trkpt><trkpt lat="43.73711256910577" lon="11.297144256103364"><ele>86.00000000000001</ele><time>2026-05-03T09:47:50.863Z</time></trkpt><trkpt lat="43.73717407897861" lon="11.2971856197695"><ele>86.0</ele><time>2026-05-03T09:47:54.863Z</time></trkpt><trkpt lat="43.737238716151104" lon="11.297221982390868"><ele>86.0</ele><time>2026-05-03T09:48:01.863Z</time></trkpt><trkpt lat="43.7373130941995" lon="11.297252854919806"><ele>86.0</ele><time>2026-05-03T09:48:08.863Z</time></trkpt><trkpt lat="43.737383970523126" lon="11.29727933101029"><ele>86.0</ele><time>2026-05-03T09:48:15.863Z</time></trkpt><trkpt lat="43.737449665538534" lon="11.297320779280428"><ele>86.00000000000001</ele><time>2026-05-03T09:48:19.863Z</time></trkpt><trkpt lat="43.73751542933256" lon="11.297356705832788"><ele>86.0</ele><time>2026-05-03T09:48:25.863Z</time></trkpt><trkpt lat="43.73758196253342" lon="11.297348893435288"><ele>86.00000000000001</ele><time>2026-05-03T09:48:31.863Z</time></trkpt><trkpt lat="43.73764663847391" lon="11.297362691551589"><ele>86.0</ele><time>2026-05-03T09:48:36.863Z</time></trkpt><trkpt lat="43.73771093708136" lon="11.297378169852756"><ele>86.0</ele><time>2026-05-03T09:48:42.863Z</time></trkpt><trkpt lat="43.737782690167705" lon="11.297415107679834"><ele>86.0</ele><time>2026-05-03T09:48:47.863Z</time></trkpt><trkpt lat="43.737850814402826" lon="11.297467375420867"><ele>86.0</ele><time>2026-05-03T09:48:52.863Z</time></trkpt><trkpt lat="43.73789641535495" lon="11.297539294223721"><ele>86.00000000000001</ele><time>2026-05-03T09:48:56.863Z</time></trkpt><trkpt lat="43.73794997511165" lon="11.29760365805993"><ele>86.0</ele><time>2026-05-03T09:49:01.863Z</time></trkpt><trkpt lat="43.738020241961486" lon="11.297632382972791"><ele>85.71428571428572</ele><time>2026-05-03T09:49:07.863Z</time></trkpt><trkpt lat="43.738109051366514" lon="11.297670648662516"><ele>85.42857142857143</ele><time>2026-05-03T09:49:20.861Z</time></trkpt><trkpt lat="43.738173433025956" lon="11.297695731491995"><ele>85.14285714285714</ele><time>2026-05-03T09:49:24.861Z</time></trkpt><trkpt lat="43.73823007178012" lon="11.297740317235558"><ele>84.85714285714286</ele><time>2026-05-03T09:49:29.861Z</time></trkpt><trkpt lat="43.7382939070144" lon="11.297769149346568"><ele>84.57142857142857</ele><time>2026-05-03T09:49:34.861Z</time></trkpt><trkpt lat="43.73835306083987" lon="11.297819274525617"><ele>84.28571428571429</ele><time>2026-05-03T09:49:38.861Z</time></trkpt><trkpt lat="43.73843968469278" lon="11.297840141979107"><ele>84.0</ele><time>2026-05-03T09:49:48.861Z</time></trkpt><trkpt lat="43.738541455613344" lon="11.297834380971329"><ele>84.0</ele><time>2026-05-03T09:49:59.861Z</time></trkpt><trkpt lat="43.73860850402888" lon="11.297798008431482"><ele>84.0</ele><time>2026-05-03T09:50:03.861Z</time></trkpt><trkpt lat="43.73879115057813" lon="11.297771431983497"><ele>84.0</ele><time>2026-05-03T09:50:17.86Z</time></trkpt><trkpt lat="43.738854746767736" lon="11.297864569505514"><ele>84.0</ele><time>2026-05-03T09:50:19.86Z</time></trkpt><trkpt lat="43.73891427419993" lon="11.297899712778612"><ele>84.0</ele><time>2026-05-03T09:50:22.86Z</time></trkpt><trkpt lat="43.739128951229205" lon="11.297951183141418"><ele>84.0</ele><time>2026-05-03T09:50:42.86Z</time></trkpt><trkpt lat="43.73919483373716" lon="11.297977027602206"><ele>84.0</ele><time>2026-05-03T09:50:46.86Z</time></trkpt><trkpt lat="43.7392607071935" lon="11.298077688081314"><ele>84.0</ele><time>2026-05-03T09:50:50.86Z</time></trkpt><trkpt lat="43.739284783520986" lon="11.29816814201775"><ele>84.0</ele><time>2026-05-03T09:50:55.86Z</time></trkpt><trkpt lat="43.73931934968502" lon="11.298247864962713"><ele>84.0</ele><time>2026-05-03T09:51:00.86Z</time></trkpt><trkpt lat="43.73933312248989" lon="11.298347950933561"><ele>84.0</ele><time>2026-05-03T09:51:05.86Z</time></trkpt><trkpt lat="43.73933328887308" lon="11.298443625481271"><ele>84.0</ele><time>2026-05-03T09:51:12.86Z</time></trkpt><trkpt lat="43.7393191838001" lon="11.298533262962987"><ele>83.85714285714286</ele><time>2026-05-03T09:51:18.86Z</time></trkpt><trkpt lat="43.73930929423154" lon="11.298623639515847"><ele>83.71428571428572</ele><time>2026-05-03T09:51:22.86Z</time></trkpt><trkpt lat="43.73928707983558" lon="11.298719407876643"><ele>83.57142857142857</ele><time>2026-05-03T09:51:27.858Z</time></trkpt><trkpt lat="43.739268896515576" lon="11.298818448230747"><ele>83.42857142857143</ele><time>2026-05-03T09:51:31.858Z</time></trkpt><trkpt lat="43.7392597005797" lon="11.298914808611993"><ele>83.28571428571429</ele><time>2026-05-03T09:51:36.858Z</time></trkpt><trkpt lat="43.73924100992546" lon="11.299000667387393"><ele>83.14285714285714</ele><time>2026-05-03T09:51:41.858Z</time></trkpt><trkpt lat="43.73921807167663" lon="11.299101728627713"><ele>83.0</ele><time>2026-05-03T09:51:46.858Z</time></trkpt><trkpt lat="43.739195681265954" lon="11.299199412642919"><ele>83.0</ele><time>2026-05-03T09:51:52.858Z</time></trkpt><trkpt lat="43.73918430377185" lon="11.299292685881744"><ele>83.0</ele><time>2026-05-03T09:51:59.858Z</time></trkpt><trkpt lat="43.73918853672484" lon="11.299383073513267"><ele>83.0</ele><time>2026-05-03T09:52:04.858Z</time></trkpt><trkpt lat="43.73915652196824" lon="11.299475053675328"><ele>83.0</ele><time>2026-05-03T09:52:10.858Z</time></trkpt><trkpt lat="43.73913388836706" lon="11.299566344902143"><ele>83.0</ele><time>2026-05-03T09:52:15.858Z</time></trkpt><trkpt lat="43.73911482609376" lon="11.299653207486326"><ele>83.0</ele><time>2026-05-03T09:52:20.858Z</time></trkpt><trkpt lat="43.739099240509404" lon="11.299759958924497"><ele>83.0</ele><time>2026-05-03T09:52:26.858Z</time></trkpt><trkpt lat="43.73908085565209" lon="11.29984722916959"><ele>86.0</ele><time>2026-05-03T09:52:30.857Z</time></trkpt><trkpt lat="43.73907375346973" lon="11.299953638984062"><ele>86.0</ele><time>2026-05-03T09:52:37.857Z</time></trkpt><trkpt lat="43.739081472607666" lon="11.300052991238072"><ele>86.0</ele><time>2026-05-03T09:52:43.857Z</time></trkpt><trkpt lat="43.73907942991133" lon="11.300153382795228"><ele>86.0</ele><time>2026-05-03T09:52:49.857Z</time></trkpt><trkpt lat="43.73903135863246" lon="11.300222906665445"><ele>86.0</ele><time>2026-05-03T09:52:59.857Z</time></trkpt><trkpt lat="43.738967160268835" lon="11.300265385788414"><ele>86.0</ele><time>2026-05-03T09:53:11.857Z</time></trkpt></trkseg></trk></gpx>